createdAt,value
2022-08-20T08:47:44.835Z,80.79
2022-08-20T08:50:53.623Z,80.62
2022-08-20T08:53:42.275Z,80.52
2022-08-20T08:56:29.248Z,80.58
2022-08-20T08:59:14.776Z,80.55
2022-08-20T09:02:02.660Z,80.43
2022-08-20T09:04:48.367Z,79.47
2022-08-20T09:07:34.656Z,79.90
2022-08-20T09:10:23.085Z,80.19
2022-08-20T09:13:08.958Z,79.88
2022-08-20T09:15:55.759Z,79.92
2022-08-20T09:18:41.517Z,79.42
2022-08-20T09:21:27.048Z,80.26
2022-08-20T09:24:12.565Z,80.29
2022-08-20T09:26:57.876Z,80.01
2022-08-20T09:29:43.516Z,80.38
2022-08-20T09:32:28.724Z,80.60
2022-08-20T09:35:14.360Z,80.45
2022-08-20T09:38:00.222Z,79.86
2022-08-20T09:40:45.630Z,80.68
2022-08-20T09:43:30.878Z,79.82
2022-08-20T09:46:16.414Z,80.34
2022-08-20T09:49:02.115Z,80.55
2022-08-20T09:51:47.734Z,80.77
2022-08-20T09:54:34.302Z,80.44
2022-08-20T09:57:20.603Z,79.70
2022-08-20T10:00:11.695Z,80.10
2022-08-20T10:03:01.909Z,80.65
2022-08-20T10:05:47.496Z,80.20
2022-08-20T10:08:33.255Z,79.93
2022-08-20T10:11:18.788Z,80.14
2022-08-20T10:14:04.910Z,79.82
2022-08-20T10:16:55.281Z,79.40
2022-08-20T10:19:44.412Z,78.94
2022-08-20T10:22:30.037Z,78.24
2022-08-20T10:25:16.811Z,79.12
2022-08-20T10:28:02.254Z,79.04
2022-08-20T10:30:47.419Z,78.95
2022-08-20T10:33:33.003Z,78.50
2022-08-20T10:36:18.357Z,78.97
2022-08-20T10:39:04.326Z,78.68
2022-08-20T10:41:49.548Z,77.95
2022-08-20T10:44:35.226Z,78.39
2022-08-20T10:47:22.867Z,78.54
2022-08-20T10:50:10.396Z,79.33
2022-08-20T10:52:55.679Z,78.30
2022-08-20T10:55:41.403Z,78.15
2022-08-20T10:58:27.366Z,78.79
2022-08-20T11:01:31.462Z,78.89
2022-08-20T11:04:20.673Z,79.19
2022-08-20T11:07:55.019Z,79.01
2022-08-20T11:10:35.785Z,78.46
2022-08-20T11:13:21.211Z,79.11
2022-08-20T11:16:06.825Z,78.41
2022-08-20T11:22:53.926Z,78.89
2022-08-20T11:25:39.205Z,78.54
2022-08-20T11:28:31.105Z,78.99
2022-08-20T11:31:18.069Z,78.99
2022-08-20T11:34:03.473Z,78.76
2022-08-20T11:36:48.987Z,78.71
2022-08-20T11:43:35.205Z,77.76
2022-08-20T11:46:21.338Z,77.74
2022-08-20T11:49:08.961Z,77.46
2022-08-20T11:51:54.395Z,77.80
2022-08-20T11:54:40.720Z,77.77
2022-08-20T12:01:39.474Z,77.94
2022-08-20T12:09:24.651Z,78.17
2022-08-20T12:12:09.950Z,78.41
2022-08-20T12:14:55.761Z,78.38
2022-08-20T12:17:41.313Z,78.56
2022-08-20T12:20:26.682Z,78.19
2022-08-20T12:23:12.143Z,78.16
2022-08-20T12:25:59.234Z,78.56
2022-08-20T12:28:44.799Z,77.23
2022-08-20T12:31:30.292Z,77.90
2022-08-20T12:34:16.564Z,77.45
2022-08-20T12:37:05.679Z,77.84
2022-08-20T12:39:53.353Z,75.75
2022-08-20T12:42:38.828Z,75.54
2022-08-20T12:45:24.674Z,75.39
2022-08-20T12:48:11.531Z,75.26
2022-08-20T12:50:56.931Z,75.16
2022-08-20T12:53:42.114Z,75.44
2022-08-20T12:56:27.603Z,76.38
2022-08-20T12:59:13.255Z,74.73
2022-08-20T13:01:58.769Z,75.72
2022-08-20T13:05:04.623Z,75.87
2022-08-20T13:07:51.355Z,74.97
2022-08-20T13:10:38.197Z,75.78
2022-08-20T13:13:23.967Z,74.99
2022-08-20T13:16:09.610Z,74.46
2022-08-20T13:18:55.274Z,74.58
2022-08-20T13:21:40.688Z,75.31
2022-08-20T13:24:26.343Z,75.09
2022-08-20T13:27:16.589Z,74.72
2022-08-20T13:30:02.143Z,75.01
2022-08-20T13:32:47.815Z,74.57
2022-08-20T13:35:33.286Z,75.27
2022-08-20T13:38:19.021Z,75.76
2022-08-20T13:41:04.902Z,76.74
2022-08-20T13:43:50.636Z,76.68
2022-08-20T13:46:35.940Z,76.23
2022-08-20T13:49:21.405Z,76.52
2022-08-20T13:52:07.025Z,76.56
2022-08-20T13:54:53.928Z,76.99
2022-08-20T13:57:39.888Z,77.01
2022-08-20T14:00:31.870Z,76.94
2022-08-20T14:03:27.880Z,77.06
2022-08-20T14:06:13.240Z,76.97
2022-08-20T14:08:58.699Z,77.33
2022-08-20T14:11:44.387Z,77.38
2022-08-20T14:14:29.967Z,77.31
2022-08-20T14:17:15.777Z,77.07
2022-08-20T14:20:04.734Z,77.18
2022-08-20T14:22:50.285Z,77.16
2022-08-20T14:25:35.598Z,77.25
2022-08-20T14:28:22.494Z,76.90
2022-08-20T14:31:07.717Z,76.95
2022-08-20T14:33:53.362Z,76.93
2022-08-20T14:36:38.440Z,77.59
2022-08-20T14:39:25.439Z,77.30
2022-08-20T14:42:10.942Z,77.26
2022-08-20T14:44:57.236Z,77.25
2022-08-20T14:47:44.469Z,77.43
2022-08-20T14:50:35.251Z,77.73
2022-08-20T14:53:21.941Z,77.67
2022-08-20T14:59:54.683Z,77.43
2022-08-20T15:02:40.232Z,77.74
2022-08-20T15:05:44.435Z,78.04
2022-08-20T15:08:31.585Z,78.14
2022-08-20T15:11:17.055Z,77.95
2022-08-20T15:14:02.910Z,77.50
2022-08-20T15:17:13.473Z,77.62
2022-08-20T15:20:01.803Z,78.08
2022-08-20T15:26:37.922Z,78.14
2022-08-20T15:29:23.664Z,78.01
2022-08-20T15:36:15.727Z,78.43
2022-08-20T15:39:01.418Z,78.28
2022-08-20T15:41:46.742Z,78.31
2022-08-20T15:44:32.188Z,78.58
2022-08-20T15:47:44.319Z,78.09
2022-08-20T15:50:39.388Z,78.57
2022-08-20T15:57:13.614Z,78.56
2022-08-20T16:00:10.214Z,78.51
2022-08-20T16:02:56.301Z,78.75
2022-08-20T16:05:53.605Z,78.63
2022-08-20T16:08:58.183Z,78.87
2022-08-20T16:15:31.835Z,79.24
2022-08-20T16:18:23.106Z,79.16
2022-08-20T16:21:12.048Z,78.87
2022-08-20T16:23:57.897Z,79.40
2022-08-20T16:26:51.360Z,78.99
2022-08-20T16:29:45.623Z,79.11
2022-08-20T16:32:31.166Z,79.42
2022-08-20T16:35:16.908Z,78.94
2022-08-20T16:38:06.835Z,78.98
2022-08-20T16:40:57.038Z,79.58
2022-08-20T16:43:53.601Z,79.09
2022-08-20T16:46:49.342Z,79.25
2022-08-20T16:49:38.796Z,79.21
2022-08-20T16:52:48.391Z,79.64
2022-08-20T16:55:34.044Z,79.20
2022-08-20T16:58:19.734Z,79.61
2022-08-20T17:05:02.439Z,79.42
2022-08-20T17:07:52.946Z,79.50
2022-08-20T17:10:53.321Z,79.72
2022-08-20T17:13:40.875Z,79.74
2022-08-20T17:16:32.853Z,79.46
2022-08-20T17:19:19.922Z,79.66
2022-08-20T17:22:10.613Z,79.49
2022-08-20T17:24:56.541Z,79.63
2022-08-20T17:28:17.847Z,79.68
2022-08-20T17:31:03.542Z,79.65
2022-08-20T17:33:49.254Z,79.62
2022-08-20T17:37:11.791Z,80.26
2022-08-20T17:46:55.957Z,80.21
2022-08-20T17:49:54.942Z,79.82
2022-08-20T17:52:53.124Z,79.85
2022-08-20T17:55:39.598Z,80.10
2022-08-20T18:01:38.589Z,80.07
2022-08-20T18:04:24.743Z,79.66
2022-08-20T18:07:18.300Z,79.52
2022-08-20T18:10:04.017Z,79.76
2022-08-20T18:12:49.509Z,79.64
2022-08-20T18:22:48.017Z,80.21
2022-08-20T18:26:03.597Z,79.81
2022-08-20T18:28:56.349Z,80.20
2022-08-20T18:32:00.731Z,79.78
2022-08-20T18:34:48.454Z,79.78
2022-08-20T18:37:34.280Z,80.31
2022-08-20T18:40:29.262Z,81.13
2022-08-20T18:43:34.218Z,81.01
2022-08-20T18:50:40.198Z,80.77
2022-08-20T18:57:55.344Z,81.27
2022-08-20T19:00:41.187Z,81.31
2022-08-20T19:03:30.548Z,81.53
2022-08-20T19:06:33.663Z,81.36
2022-08-20T19:09:54.955Z,81.02
2022-08-20T19:13:01.225Z,80.74
2022-08-20T19:15:50.023Z,81.04
2022-08-20T19:18:41.378Z,80.76
2022-08-20T19:21:42.695Z,81.05
2022-08-20T19:28:44.193Z,80.90
2022-08-20T19:34:24.166Z,81.09
2022-08-20T19:37:35.381Z,80.87
2022-08-20T19:43:45.021Z,80.73
2022-08-20T19:46:31.298Z,81.01
2022-08-20T19:49:42.877Z,80.65
2022-08-20T19:52:34.962Z,81.03
2022-08-20T19:55:35.051Z,81.13
2022-08-20T19:58:26.559Z,80.76
2022-08-20T20:01:17.991Z,81.29
2022-08-20T20:04:11.134Z,81.00
2022-08-20T20:06:58.660Z,81.10
2022-08-20T20:09:45.205Z,81.03
2022-08-20T20:12:33.739Z,80.70
2022-08-20T20:15:20.280Z,80.90
2022-08-20T20:18:07.461Z,80.96
2022-08-20T20:26:40.695Z,81.18
2022-08-20T20:29:35.475Z,80.93
2022-08-20T20:32:23.519Z,81.25
2022-08-20T20:35:09.628Z,81.38
2022-08-20T20:38:00.310Z,81.59
2022-08-20T20:40:47.374Z,81.38
2022-08-20T20:43:38.192Z,81.53
2022-08-20T20:46:24.876Z,81.38
2022-08-20T20:49:34.959Z,81.56
2022-08-20T20:52:31.551Z,81.58
2022-08-20T20:55:17.854Z,81.44
2022-08-20T20:58:04.044Z,81.43
2022-08-20T21:00:49.915Z,81.62
2022-08-20T21:03:35.948Z,81.55
2022-08-20T21:06:25.441Z,81.49
2022-08-20T21:09:11.311Z,81.89
2022-08-20T21:11:57.542Z,81.54
2022-08-20T21:14:43.723Z,81.48
2022-08-20T21:17:30.092Z,81.90
2022-08-20T21:20:16.190Z,81.68
2022-08-20T21:23:02.270Z,81.72
2022-08-20T21:25:47.813Z,81.78
2022-08-20T21:28:33.886Z,82.03
2022-08-20T21:31:19.793Z,81.70
2022-08-20T21:34:05.470Z,82.13
2022-08-20T21:36:51.645Z,82.08
2022-08-20T21:39:37.625Z,81.71
2022-08-20T21:42:29.424Z,82.01
2022-08-20T21:45:18.659Z,82.28
2022-08-20T21:48:05.738Z,82.44
2022-08-20T21:50:51.902Z,82.27
2022-08-20T21:53:37.838Z,82.32
2022-08-20T21:56:23.971Z,82.29
2022-08-20T21:59:10.727Z,82.85
2022-08-20T22:01:57.033Z,83.13
2022-08-20T22:04:42.717Z,82.77
2022-08-20T22:07:28.833Z,82.82
2022-08-20T22:10:14.582Z,82.88
2022-08-20T22:16:57.872Z,82.81
2022-08-20T22:19:43.563Z,82.78
2022-08-20T22:22:29.654Z,82.68
2022-08-20T22:25:16.053Z,82.47
2022-08-20T22:28:02.303Z,82.39
2022-08-20T22:30:48.384Z,82.36
2022-08-20T22:33:35.034Z,82.24
2022-08-20T22:36:20.921Z,82.29
2022-08-20T22:39:09.897Z,82.24
2022-08-20T22:41:56.263Z,82.16
2022-08-20T22:44:42.306Z,82.35
2022-08-20T22:47:29.298Z,82.22
2022-08-20T22:50:30.615Z,82.07
2022-08-20T22:53:19.881Z,81.73
2022-08-20T22:56:08.083Z,81.84
2022-08-20T22:59:13.300Z,81.84
2022-08-20T23:02:08.277Z,81.65
2022-08-20T23:05:40.783Z,81.99
2022-08-20T23:08:27.406Z,81.75
2022-08-20T23:11:12.997Z,81.52
2022-08-20T23:13:59.170Z,81.64
2022-08-20T23:16:46.747Z,81.83
2022-08-20T23:19:33.238Z,81.94
2022-08-20T23:22:20.147Z,82.24
2022-08-20T23:25:07.367Z,82.33
2022-08-20T23:27:55.920Z,82.05
2022-08-20T23:30:49.173Z,82.34
2022-08-20T23:33:34.944Z,82.32
2022-08-20T23:36:21.411Z,82.61
2022-08-20T23:39:07.484Z,82.65
2022-08-20T23:41:54.888Z,82.50
2022-08-20T23:44:41.039Z,82.52
2022-08-20T23:47:26.893Z,82.59
2022-08-20T23:50:15.086Z,82.61
2022-08-20T23:53:01.132Z,82.82
2022-08-20T23:56:16.153Z,82.87
2022-08-20T23:59:02.623Z,82.94
